Weather History for KHDE - March, 2013

Change the Weather History Date:

Thursday, March 21, 2013

  Actual Average Record
Temperature  
Mean Temperature 38 °F -  
Max Temperature 47 °F 54 °F - (-1)
Min Temperature 29 °F 26 °F - (-1)
Degree Days  
Heating Degree Days 28    
Moisture  
Dew Point 19 °F    
Average Humidity 51    
Maximum Humidity 76    
Minimum Humidity 30    
Precipitation  
Precipitation 0.00 in - - ()
Sea Level Pressure  
Sea Level Pressure 29.81 in    
Wind  
Wind Speed 16 mph (ESE)    
Max Wind Speed 26 mph    
Max Gust Speed 30 mph    
Visibility 10 miles    
Events Snow    
Averages and records for this station are not official NWS values.
T = Trace of Precipitation, MM = Missing Value Source: NWS Daily Summary

Daily Weather History Graph

Daily Weather History Graph

Search for Another Location

Airport or City:

Trip Planner

Search our weather history database for the weather conditions in past years. The results will help you decide how hot, cold, wet, or windy it might be!

Date:

Astronomy

Mar. 21, 2013 Rise Set
Actual Time 7:38 AM CDT 7:50 PM CDT
Civil Twilight 7:11 AM CDT 8:18 PM CDT
Nautical Twilight 6:39 AM CDT 8:49 PM CDT
Astronomical Twilight 6:07 AM CDT 9:22 PM CDT
Moon 2:21 PM CDT (3/21) 4:02 AM CDT (3/21)
Length of Visible Light 13h 06m
Length of Day
12h 12m
Waxing Gibbous, 69% of the Moon is Illuminated
Mar 21
Waxing Gibbous
Mar 27
Full
Apr 2
Last Quarter
Apr 10
New
Apr 18
First Quarter

Hourly Weather History & Observations

Time (CDT) Temp. Windchill Dew Point Humidity Pressure Visibility Wind Dir Wind Speed Gust Speed Precip Events Conditions
12:15 AM 34.9 °F 26.6 °F 20.8 °F 57% 29.97 in 10.0 mi SE 11.5 mph - N/A   Overcast
12:35 AM 34.9 °F 25.7 °F 20.3 °F 55% 29.95 in 10.0 mi SE 13.8 mph - N/A   Overcast
1:15 AM 34.7 °F 25.1 °F 19.9 °F 55% 29.92 in 10.0 mi SE 15.0 mph 20.7 mph N/A   Overcast
1:35 AM 34.5 °F 24.5 °F 19.4 °F 54% 29.91 in 10.0 mi SE 16.1 mph - N/A   Overcast
1:55 AM 34.3 °F 25.5 °F 19.2 °F 54% 29.91 in 10.0 mi SE 12.7 mph - N/A   Overcast
2:15 AM 34.2 °F 24.0 °F 18.9 °F 54% 29.90 in 10.0 mi SE 16.1 mph - N/A   Overcast
2:35 AM 33.8 °F 24.8 °F 19.2 °F 55% 29.90 in 10.0 mi ESE 12.7 mph - N/A   Mostly Cloudy
2:55 AM 33.8 °F 24.3 °F 19.0 °F 55% 29.89 in 10.0 mi SE 13.8 mph - N/A   Overcast
3:15 AM 33.8 °F 23.5 °F 19.4 °F 56% 29.88 in 10.0 mi ESE 16.1 mph - N/A   Overcast
3:35 AM 33.8 °F 23.9 °F 19.4 °F 56% 29.88 in 10.0 mi ESE 15.0 mph - N/A   Overcast
3:55 AM 33.3 °F 22.8 °F 19.4 °F 57% 29.86 in 10.0 mi ESE 16.1 mph - N/A   Overcast
4:15 AM 32.9 °F 22.4 °F 19.4 °F 58% 29.86 in 10.0 mi ESE 16.1 mph - N/A   Overcast
4:35 AM 32.4 °F 21.7 °F 19.4 °F 59% 29.85 in 10.0 mi ESE 16.1 mph - N/A   Overcast
4:55 AM 32.0 °F 22.5 °F 19.9 °F 61% 29.86 in 10.0 mi ESE 12.7 mph - N/A   Overcast
5:15 AM 31.8 °F 21.4 °F 19.9 °F 62% 29.86 in 10.0 mi ESE 15.0 mph - N/A   Overcast
5:35 AM 31.5 °F 21.4 °F 19.9 °F 62% 29.85 in 10.0 mi ESE 13.8 mph 19.6 mph N/A   Overcast
5:55 AM 31.1 °F 20.1 °F 19.8 °F 63% 29.84 in 10.0 mi ESE 16.1 mph - N/A   Mostly Cloudy
6:15 AM 30.2 °F 18.9 °F 19.4 °F 64% 29.84 in 10.0 mi ESE 16.1 mph 21.9 mph N/A   Mostly Cloudy
6:35 AM 30.2 °F 18.5 °F 18.1 °F 61% 29.84 in 10.0 mi ESE 17.3 mph 21.9 mph N/A   Scattered Clouds
6:55 AM 30.0 °F 17.9 °F 17.2 °F 59% 29.83 in 10.0 mi ESE 18.4 mph - N/A   Mostly Cloudy
7:15 AM 29.8 °F 19.3 °F 17.1 °F 59% 29.82 in 10.0 mi ESE 13.8 mph - N/A   Overcast
7:55 AM 29.7 °F 18.6 °F 16.3 °F 58% 29.83 in 10.0 mi ESE 15.0 mph - N/A   Overcast
8:15 AM 29.8 °F 18.4 °F 15.8 °F 56% 29.83 in 10.0 mi ESE 16.1 mph - N/A   Mostly Cloudy
8:35 AM 30.0 °F 19.1 °F 15.8 °F 56% 29.82 in 10.0 mi ESE 15.0 mph - N/A   Mostly Cloudy
8:55 AM 30.0 °F 18.7 °F 15.3 °F 54% 29.82 in 10.0 mi ESE 16.1 mph - N/A   Mostly Cloudy
9:15 AM 31.5 °F 20.5 °F 15.4 °F 52% 29.82 in 10.0 mi ESE 16.1 mph - N/A   Scattered Clouds
9:35 AM 32.2 °F 21.4 °F 14.9 °F 49% 29.82 in 10.0 mi SE 16.1 mph 20.7 mph N/A   Scattered Clouds
9:55 AM 33.8 °F 23.2 °F 14.4 °F 45% 29.82 in 10.0 mi SE 17.3 mph - N/A   Scattered Clouds
10:15 AM 35.6 °F 24.5 °F 14.5 °F 42% 29.82 in 10.0 mi ESE 20.7 mph - N/A   Mostly Cloudy
10:35 AM 35.6 °F 25.2 °F 14.0 °F 41% 29.82 in 10.0 mi ESE 18.4 mph 27.6 mph N/A   Mostly Cloudy
10:55 AM 36.3 °F 26.4 °F 13.6 °F 39% 29.81 in 10.0 mi SE 17.3 mph 25.3 mph N/A   Mostly Cloudy
11:35 AM 39.2 °F 29.8 °F 13.8 °F 36% 29.78 in 10.0 mi SE 18.4 mph 26.5 mph N/A   Clear
11:55 AM 39.9 °F 30.2 °F 13.6 °F 34% 29.78 in 10.0 mi SE 20.7 mph 29.9 mph N/A   Clear
12:15 PM 41.5 °F 32.4 °F 14.0 °F 33% 29.78 in 10.0 mi SE 20.7 mph 29.9 mph N/A   Clear
12:35 PM 41.7 °F 31.9 °F 14.2 °F 33% 29.78 in 10.0 mi SE 24.2 mph 28.8 mph N/A   Clear
12:55 PM 42.8 °F 34.3 °F 14.5 °F 32% 29.77 in 10.0 mi SE 19.6 mph 26.5 mph N/A   Clear
1:15 PM 44.2 °F 36.7 °F 15.6 °F 32% 29.76 in 10.0 mi SE 17.3 mph 27.6 mph N/A   Clear
1:35 PM 43.5 °F 35.2 °F 15.3 °F 32% 29.76 in 10.0 mi ESE 19.6 mph 26.5 mph N/A   Clear
1:55 PM 45.5 °F 37.6 °F 16.2 °F 31% 29.75 in 10.0 mi SSE 20.7 mph 26.5 mph N/A   Clear
2:15 PM 44.8 °F 36.4 °F 15.8 °F 31% 29.74 in 10.0 mi ESE 21.9 mph 27.6 mph N/A   Clear
2:35 PM 45.0 °F 37.4 °F 15.8 °F 31% 29.73 in 10.0 mi ESE 18.4 mph 26.5 mph N/A   Clear
2:55 PM 46.0 °F 37.6 °F 16.7 °F 31% 29.72 in 10.0 mi ESE 24.2 mph 29.9 mph N/A   Clear
3:15 PM 46.2 °F 39.5 °F 16.5 °F 31% 29.72 in 10.0 mi SE 16.1 mph 28.8 mph N/A   Clear
3:35 PM 46.8 °F - 17.1 °F 31% 29.72 in 10.0 mi SE 15.0 mph 23.0 mph N/A   Clear
3:55 PM 46.8 °F - 17.2 °F 31% 29.72 in 10.0 mi SE 18.4 mph 25.3 mph N/A   Clear
4:15 PM 46.2 °F 39.5 °F 16.5 °F 31% 29.72 in 10.0 mi ESE 16.1 mph 26.5 mph N/A   Clear
4:35 PM 46.8 °F - 16.9 °F 30% 29.72 in 10.0 mi ESE 16.1 mph 21.9 mph N/A   Clear
4:55 PM 46.2 °F 39.0 °F 17.2 °F 31% 29.73 in 10.0 mi ESE 18.4 mph 24.2 mph N/A   Clear
5:15 PM 44.8 °F 37.7 °F 16.7 °F 32% 29.74 in 10.0 mi SE 16.1 mph 21.9 mph N/A   Clear
5:35 PM 44.1 °F 37.1 °F 16.9 °F 34% 29.74 in 10.0 mi SE 15.0 mph - N/A   Clear
5:55 PM 44.2 °F 37.0 °F 17.2 °F 34% 29.74 in 10.0 mi SE 16.1 mph - N/A   Clear
6:15 PM 43.7 °F 36.9 °F 16.9 °F 34% 29.74 in 10.0 mi SE 13.8 mph - N/A   Clear
6:35 PM 40.8 °F 31.1 °F 25.7 °F 55% 29.76 in 10.0 mi ESE 21.9 mph 26.5 mph N/A   Clear
6:55 PM 38.8 °F 28.3 °F 26.1 °F 60% 29.76 in 10.0 mi East 23.0 mph - N/A   Clear
7:15 PM 37.4 °F 25.6 °F 26.4 °F 65% 29.76 in 10.0 mi East 26.5 mph - N/A   Clear
7:35 PM 36.7 °F 25.4 °F 26.4 °F 66% 29.77 in 10.0 mi East 23.0 mph 26.5 mph N/A   Clear
7:55 PM 36.1 °F 25.5 °F 25.7 °F 66% 29.78 in 10.0 mi East 19.6 mph - N/A   Mostly Cloudy
8:15 PM 36.0 °F 25.0 °F 25.7 °F 66% 29.79 in 10.0 mi East 20.7 mph - N/A   Overcast
8:35 PM 35.6 °F 24.2 °F 25.3 °F 66% 29.79 in 10.0 mi East 21.9 mph 26.5 mph N/A   Overcast
8:55 PM 35.2 °F 25.0 °F 25.3 °F 67% 29.81 in 10.0 mi ESE 17.3 mph 25.3 mph N/A   Overcast
9:15 PM 34.9 °F 24.2 °F 25.2 °F 68% 29.81 in 10.0 mi ESE 18.4 mph - N/A   Overcast
9:35 PM 34.7 °F 23.4 °F 24.4 °F 66% 29.82 in 10.0 mi East 20.7 mph - N/A   Overcast
9:55 PM 34.2 °F 23.6 °F 24.4 °F 68% 29.83 in 10.0 mi East 17.3 mph - N/A   Overcast
10:15 PM 33.8 °F 22.8 °F 24.1 °F 68% 29.84 in 10.0 mi ESE 18.4 mph - N/A   Mostly Cloudy
10:35 PM 33.3 °F 22.8 °F 24.6 °F 71% 29.85 in 10.0 mi ESE 16.1 mph - N/A   Mostly Cloudy
10:55 PM 32.9 °F 22.8 °F 24.1 °F 70% 29.87 in 10.0 mi ESE 15.0 mph - N/A   Overcast
11:15 PM 32.9 °F 24.1 °F 23.9 °F 69% 29.89 in 10.0 mi ESE 11.5 mph - N/A   Overcast
11:35 PM 32.4 °F 23.5 °F 24.3 °F 72% 29.90 in 10.0 mi ESE 11.5 mph - N/A   Overcast
11:55 PM 32.0 °F 24.2 °F 25.3 °F 76% 29.90 in 5.0 mi ESE 9.2 mph - N/A Snow Light Snow